Flight Track Log - Related Links

Times and Time Zones

All times are in EDT time to prevent confusion due to time zone crossing. See the EJA396 flight status page for this flight to view local times or setup timezone preferences in your user account.

Time Position Orientation Groundspeed Altitude Reporting Facility
EDT Latitude Longitude Course Direction KTS MPH feet Rate Location/Type
Mon 09:25:38 PM 34.0050 -118.4642 240° Southwest 133 153 1,000  Level Los Angeles Center
Mon 09:26:40 PM 33.9819 -118.5117 240° Southwest 158 182 3,200 2,661 Climbing Los Angeles Center
Mon 09:27:42 PM 33.9528 -118.5822 244° Southwest 237 273 6,500 3,610 Climbing Los Angeles Center
Mon 09:28:43 PM 33.9269 -118.6628 249° West 260 299 10,600 3,512 Climbing Los Angeles Center
Mon 09:29:45 PM 33.9144 -118.7606 261° West 276 318 13,700 2,661 Climbing Los Angeles Center
Mon 09:30:47 PM 33.9294 -118.8492 282° West 293 337 16,100 2,537 Climbing Los Angeles Center
Mon 09:31:48 PM 33.9833 -118.9325 308° West 314 361 18,900 2,634 Climbing Los Angeles Center
Mon 09:32:50 PM 34.0400 -119.0139 310° West 319 367 21,500 2,390 Climbing Los Angeles Center
Mon 09:33:51 PM 34.1056 -119.0914 316° Northwest 330 380 23,800 2,244 Climbing Los Angeles Center
Mon 09:34:53 PM 34.1725 -119.1714 315° West 335 386 26,100 2,419 Climbing Los Angeles Center
Mon 09:35:55 PM 34.2542 -119.2681 316° Northwest 341 392 28,800 1,902 Climbing Los Angeles Center
Mon 09:36:56 PM 34.3225 -119.3483 316° Northwest 342 394 30,000 585 Climbing Los Angeles Center
Mon 09:37:58 PM 34.3983 -119.4400 315° West 382 440 30,000  Level Los Angeles Center
Mon 09:39:00 PM 34.4806 -119.5392 315° West 409 471 30,000  Level Los Angeles Center
Mon 09:40:01 PM 34.5667 -119.6406 316° Northwest 426 490 30,000  Level Los Angeles Center
Mon 09:41:03 PM 34.6658 -119.7589 316° Northwest 436 502 30,000  Level Los Angeles Center
Mon 09:42:04 PM 34.7525 -119.8653 315° West 443 510 30,000  Level Los Angeles Center
Mon 09:43:06 PM 34.8392 -119.9694 315° West 440 506 30,000  Level Los Angeles Center
Mon 09:44:07 PM 34.9258 -120.0750 315° West 441 507 30,000  Level Los Angeles Center
Mon 09:45:09 PM 35.0078 -120.1750 315° West 446 513 30,000  Level Los Angeles Center
Mon 09:46:22 PM 35.0950 -120.2808 315° West 447 514 30,000  Level Los Angeles Center
Mon 09:47:24 PM 35.2169 -120.4308 315° West 448 516 30,000  Level Los Angeles Center
Mon 09:48:26 PM 35.3036 -120.5392 314° West 450 518 30,000  Level Los Angeles Center
Mon 09:49:27 PM 35.3917 -120.6469 315° West 449 517 30,000  Level Los Angeles Center
Mon 09:50:29 PM 35.4794 -120.7567 315° West 452 520 30,000  Level Los Angeles Center
Mon 09:51:30 PM 35.5581 -120.8339 321° Northwest 453 521 30,000  Level Los Angeles Center
Mon 09:52:32 PM 35.6978 -120.9647 323° Northwest 458 527 30,000  Level Los Angeles Center
Mon 09:52:55 PM 35.7164 -120.9839 320° Northwest 456 525 30,000  Level Oakland Center
Mon 09:53:56 PM 35.8369 -121.0997 322° Northwest 454 522 30,000  Level Oakland Center
Mon 09:54:57 PM 35.9389 -121.1942 323° Northwest 458 527 30,000  Level Oakland Center
Mon 09:55:58 PM 36.0394 -121.2911 322° Northwest 455 524 30,000  Level Oakland Center
Mon 09:56:59 PM 36.1403 -121.3850 323° Northwest 453 521 30,000 -689 Level Oakland Center
Mon 09:58:00 PM 36.2386 -121.4808 322° Northwest 447 514 28,600 -1,525 Descending Oakland Center
Mon 09:59:01 PM 36.3375 -121.5739 323° Northwest 444 511 26,900 -1,918 Descending Oakland Center
Mon 10:00:02 PM 36.4289 -121.6653 321° Northwest 421 484 24,700 -2,262 Descending Oakland Center
Mon 10:01:03 PM 36.5183 -121.7503 323° Northwest 406 467 22,300 -2,545 Descending Oakland Center
Mon 10:01:41 PM 36.5833 -121.8167 321° Northwest 395 455 20,500 -1,898 Descending Northern Cal TRACON
Mon 10:02:41 PM 36.6667 -121.8833 327° Northwest 376 433 19,200 -2,050 Descending Northern Cal TRACON
Mon 10:03:41 PM 36.7500 -121.9667 321° Northwest 366 421 16,400 -2,650 Descending Northern Cal TRACON
Mon 10:04:41 PM 36.8500 -121.9833 352° North 332 382 13,900 -2,333 Descending Northern Cal TRACON
Mon 10:05:47 PM 36.9333 -122.0167 342° North 301 346 11,500 -1,950 Descending Northern Cal TRACON
Mon 10:06:41 PM 37.0167 -122.0333 351° North 312 359 10,000 -789 Descending Northern Cal TRACON
Mon 10:07:41 PM 37.1000 -122.0500 351° North 311 358 10,000  Level Northern Cal TRACON
Mon 10:08:10 PM 37.1297 -122.0656 337° Northwest 309 356 10,000 -267 Level Oakland Center
Mon 10:09:11 PM 37.2131 -122.0878 348° North 306 352 9,600 -934 Descending Oakland Center
Mon 10:10:12 PM 37.2889 -122.1072 348° North 279 321 8,100 -1,525 Descending Oakland Center
Mon 10:11:13 PM 37.3606 -122.1258 348° North 266 306 6,500 -1,623 Descending Oakland Center
Mon 10:12:14 PM 37.4356 -122.1389 352° North 268 308 4,800 -1,279 Descending Oakland Center
Mon 10:13:15 PM 37.5103 -122.1647 345° North 275 316 3,900 -1,328 Descending Oakland Center
Mon 10:14:16 PM 37.5597 -122.2311 313° West 266 306 2,100 -1,230 Descending Oakland Center
Mon 10:15:17 PM 37.5897 -122.3044 297° West 250 288 1,400 -927 Descending Oakland Center
Mon 10:16:19 PM 37.6081 -122.3478 298° West 179 206 200 -1,161 Descending Oakland Center
Mon 10:18:00 PM 37.6167 -122.3667 322° Northwest  Level FlightAware Approximate

Login

Don't have an account? Register now (free) for customized features, flight alerts, and more!